sensor_id;sensor_type;location;lat;lon;timestamp;temperature;humidity
29453;DHT22;16424;50.956;5.320;2022-07-29T00:01:20;18.40;99.90
29453;DHT22;16424;50.956;5.320;2022-07-29T00:03:46;18.30;99.90
29453;DHT22;16424;50.956;5.320;2022-07-29T00:06:12;18.20;99.90
29453;DHT22;16424;50.956;5.320;2022-07-29T00:08:37;18.20;99.90
29453;DHT22;16424;50.956;5.320;2022-07-29T00:11:04;18.20;99.90
29453;DHT22;16424;50.956;5.320;2022-07-29T00:13:29;18.20;99.90
29453;DHT22;16424;50.956;5.320;2022-07-29T00:15:55;18.20;99.90
29453;DHT22;16424;50.956;5.320;2022-07-29T00:18:20;18.20;99.90
29453;DHT22;16424;50.956;5.320;2022-07-29T00:20:46;18.20;99.90
29453;DHT22;16424;50.956;5.320;2022-07-29T00:23:12;18.10;99.90
29453;DHT22;16424;50.956;5.320;2022-07-29T00:25:37;18.10;99.90
29453;DHT22;16424;50.956;5.320;2022-07-29T00:28:03;18.00;99.90
29453;DHT22;16424;50.956;5.320;2022-07-29T00:30:29;18.00;99.90
29453;DHT22;16424;50.956;5.320;2022-07-29T00:32:54;17.90;99.90
29453;DHT22;16424;50.956;5.320;2022-07-29T00:35:20;17.90;99.90
29453;DHT22;16424;50.956;5.320;2022-07-29T00:38:04;17.90;99.90
29453;DHT22;16424;50.956;5.320;2022-07-29T00:40:30;17.90;99.90
29453;DHT22;16424;50.956;5.320;2022-07-29T00:42:55;17.90;99.90
29453;DHT22;16424;50.956;5.320;2022-07-29T00:45:21;17.90;99.90
29453;DHT22;16424;50.956;5.320;2022-07-29T00:47:47;17.90;99.90
29453;DHT22;16424;50.956;5.320;2022-07-29T00:50:13;17.90;99.90
29453;DHT22;16424;50.956;5.320;2022-07-29T00:52:40;17.80;99.90
29453;DHT22;16424;50.956;5.320;2022-07-29T00:55:10;17.80;99.90
29453;DHT22;16424;50.956;5.320;2022-07-29T00:57:36;17.70;99.90
29453;DHT22;16424;50.956;5.320;2022-07-29T01:00:07;17.70;99.90
29453;DHT22;16424;50.956;5.320;2022-07-29T01:02:32;17.70;99.90
29453;DHT22;16424;50.956;5.320;2022-07-29T01:04:59;17.80;99.90
29453;DHT22;16424;50.956;5.320;2022-07-29T01:07:25;17.90;99.90
29453;DHT22;16424;50.956;5.320;2022-07-29T01:09:52;17.90;99.90
29453;DHT22;16424;50.956;5.320;2022-07-29T01:12:23;18.00;99.90
29453;DHT22;16424;50.956;5.320;2022-07-29T01:14:50;18.00;99.90
29453;DHT22;16424;50.956;5.320;2022-07-29T01:17:18;18.10;99.90
29453;DHT22;16424;50.956;5.320;2022-07-29T01:20:02;18.10;99.90
29453;DHT22;16424;50.956;5.320;2022-07-29T01:31:25;18.10;99.90
29453;DHT22;16424;50.956;5.320;2022-07-29T01:33:58;18.20;99.90
29453;DHT22;16424;50.956;5.320;2022-07-29T01:36:32;18.10;99.90
29453;DHT22;16424;50.956;5.320;2022-07-29T01:39:23;18.30;99.90
29453;DHT22;16424;50.956;5.320;2022-07-29T01:41:58;18.40;99.90
29453;DHT22;16424;50.956;5.320;2022-07-29T01:47:19;18.10;99.90
29453;DHT22;16424;50.956;5.320;2022-07-29T01:49:51;18.30;99.90
29453;DHT22;16424;50.956;5.320;2022-07-29T01:52:25;18.40;99.90
29453;DHT22;16424;50.956;5.320;2022-07-29T01:54:56;18.50;99.90
29453;DHT22;16424;50.956;5.320;2022-07-29T01:57:27;18.60;99.90
29453;DHT22;16424;50.956;5.320;2022-07-29T01:59:53;18.50;99.90
29453;DHT22;16424;50.956;5.320;2022-07-29T02:02:21;18.70;99.90
29453;DHT22;16424;50.956;5.320;2022-07-29T02:04:48;18.60;99.90
29453;DHT22;16424;50.956;5.320;2022-07-29T02:07:18;18.30;99.90
29453;DHT22;16424;50.956;5.320;2022-07-29T02:09:45;18.20;99.90
29453;DHT22;16424;50.956;5.320;2022-07-29T02:12:11;18.00;99.90
29453;DHT22;16424;50.956;5.320;2022-07-29T02:14:47;17.90;99.90
29453;DHT22;16424;50.956;5.320;2022-07-29T02:17:17;18.00;99.90
29453;DHT22;16424;50.956;5.320;2022-07-29T02:19:47;17.90;99.90
29453;DHT22;16424;50.956;5.320;2022-07-29T02:22:14;17.70;99.90
29453;DHT22;16424;50.956;5.320;2022-07-29T02:24:42;17.40;99.90
29453;DHT22;16424;50.956;5.320;2022-07-29T02:27:09;17.10;99.90
29453;DHT22;16424;50.956;5.320;2022-07-29T02:29:36;17.10;99.90
29453;DHT22;16424;50.956;5.320;2022-07-29T02:32:03;17.10;99.90
29453;DHT22;16424;50.956;5.320;2022-07-29T02:34:30;17.20;99.90
29453;DHT22;16424;50.956;5.320;2022-07-29T02:36:56;17.40;99.90
29453;DHT22;16424;50.956;5.320;2022-07-29T02:39:23;17.50;99.90
29453;DHT22;16424;50.956;5.320;2022-07-29T02:41:58;17.70;99.90
29453;DHT22;16424;50.956;5.320;2022-07-29T02:44:25;17.70;99.90
29453;DHT22;16424;50.956;5.320;2022-07-29T02:46:53;17.60;99.90
29453;DHT22;16424;50.956;5.320;2022-07-29T02:50:04;17.60;99.90
29453;DHT22;16424;50.956;5.320;2022-07-29T02:52:28;17.60;99.90
29453;DHT22;16424;50.956;5.320;2022-07-29T02:55:00;17.70;99.90
29453;DHT22;16424;50.956;5.320;2022-07-29T03:00:27;18.10;99.90
29453;DHT22;16424;50.956;5.320;2022-07-29T03:02:57;18.20;99.90
29453;DHT22;16424;50.956;5.320;2022-07-29T03:05:24;18.30;99.90
29453;DHT22;16424;50.956;5.320;2022-07-29T03:07:57;18.30;99.90
29453;DHT22;16424;50.956;5.320;2022-07-29T03:10:25;18.30;99.90
29453;DHT22;16424;50.956;5.320;2022-07-29T03:12:51;18.10;99.90
29453;DHT22;16424;50.956;5.320;2022-07-29T03:15:19;18.00;99.90
29453;DHT22;16424;50.956;5.320;2022-07-29T03:17:46;18.20;99.90
29453;DHT22;16424;50.956;5.320;2022-07-29T03:20:12;18.30;99.90
29453;DHT22;16424;50.956;5.320;2022-07-29T03:22:42;18.30;99.90
29453;DHT22;16424;50.956;5.320;2022-07-29T03:25:11;18.40;99.90
29453;DHT22;16424;50.956;5.320;2022-07-29T03:27:37;18.20;99.90
29453;DHT22;16424;50.956;5.320;2022-07-29T03:30:04;18.00;99.90
29453;DHT22;16424;50.956;5.320;2022-07-29T03:32:30;18.00;99.90
29453;DHT22;16424;50.956;5.320;2022-07-29T03:34:55;18.10;99.90
29453;DHT22;16424;50.956;5.320;2022-07-29T03:37:21;18.20;99.90
29453;DHT22;16424;50.956;5.320;2022-07-29T03:39:47;18.30;99.90
29453;DHT22;16424;50.956;5.320;2022-07-29T03:42:16;18.30;99.90
29453;DHT22;16424;50.956;5.320;2022-07-29T03:44:48;18.20;99.90
29453;DHT22;16424;50.956;5.320;2022-07-29T03:47:14;18.20;99.90
29453;DHT22;16424;50.956;5.320;2022-07-29T03:49:42;18.10;99.90
29453;DHT22;16424;50.956;5.320;2022-07-29T03:52:09;18.30;99.90
29453;DHT22;16424;50.956;5.320;2022-07-29T03:54:35;18.30;99.90
29453;DHT22;16424;50.956;5.320;2022-07-29T03:57:01;18.30;99.90
29453;DHT22;16424;50.956;5.320;2022-07-29T03:59:30;18.30;99.90
29453;DHT22;16424;50.956;5.320;2022-07-29T04:01:57;18.40;99.90
29453;DHT22;16424;50.956;5.320;2022-07-29T04:04:23;18.40;99.90
29453;DHT22;16424;50.956;5.320;2022-07-29T04:06:48;18.20;99.90
29453;DHT22;16424;50.956;5.320;2022-07-29T04:09:14;18.10;99.90
29453;DHT22;16424;50.956;5.320;2022-07-29T04:11:41;17.90;99.90
29453;DHT22;16424;50.956;5.320;2022-07-29T04:14:07;17.90;99.90
29453;DHT22;16424;50.956;5.320;2022-07-29T04:16:33;17.90;99.90
29453;DHT22;16424;50.956;5.320;2022-07-29T04:18:58;17.90;99.90
29453;DHT22;16424;50.956;5.320;2022-07-29T04:21:24;18.00;99.90
29453;DHT22;16424;50.956;5.320;2022-07-29T04:23:50;18.10;99.90
29453;DHT22;16424;50.956;5.320;2022-07-29T04:26:19;18.20;99.90
29453;DHT22;16424;50.956;5.320;2022-07-29T04:28:45;18.30;99.90
29453;DHT22;16424;50.956;5.320;2022-07-29T04:31:12;18.30;99.90
29453;DHT22;16424;50.956;5.320;2022-07-29T04:33:39;18.20;99.90
29453;DHT22;16424;50.956;5.320;2022-07-29T04:36:04;18.20;99.90
29453;DHT22;16424;50.956;5.320;2022-07-29T04:38:30;18.20;99.90
29453;DHT22;16424;50.956;5.320;2022-07-29T04:40:56;18.10;99.90
29453;DHT22;16424;50.956;5.320;2022-07-29T04:43:22;17.90;99.90
29453;DHT22;16424;50.956;5.320;2022-07-29T04:45:47;18.00;99.90
29453;DHT22;16424;50.956;5.320;2022-07-29T04:48:13;18.00;99.90
29453;DHT22;16424;50.956;5.320;2022-07-29T04:50:39;18.10;99.90
29453;DHT22;16424;50.956;5.320;2022-07-29T04:53:06;18.10;99.90
29453;DHT22;16424;50.956;5.320;2022-07-29T04:55:32;18.10;99.90
29453;DHT22;16424;50.956;5.320;2022-07-29T04:57:57;18.00;99.90
29453;DHT22;16424;50.956;5.320;2022-07-29T05:00:23;18.00;99.90
29453;DHT22;16424;50.956;5.320;2022-07-29T05:02:49;18.00;99.90
29453;DHT22;16424;50.956;5.320;2022-07-29T05:05:15;18.00;99.90
29453;DHT22;16424;50.956;5.320;2022-07-29T05:07:41;18.00;99.90
29453;DHT22;16424;50.956;5.320;2022-07-29T05:10:07;18.10;99.90
29453;DHT22;16424;50.956;5.320;2022-07-29T05:12:32;18.10;99.90
29453;DHT22;16424;50.956;5.320;2022-07-29T05:14:58;18.00;99.90
29453;DHT22;16424;50.956;5.320;2022-07-29T05:17:24;17.90;99.90
29453;DHT22;16424;50.956;5.320;2022-07-29T05:19:50;17.80;99.90
29453;DHT22;16424;50.956;5.320;2022-07-29T05:22:18;17.70;99.90
29453;DHT22;16424;50.956;5.320;2022-07-29T05:24:43;17.70;99.90
29453;DHT22;16424;50.956;5.320;2022-07-29T05:27:09;17.70;99.90
29453;DHT22;16424;50.956;5.320;2022-07-29T05:29:35;17.80;99.90
29453;DHT22;16424;50.956;5.320;2022-07-29T05:32:00;18.10;99.90
29453;DHT22;16424;50.956;5.320;2022-07-29T05:34:26;18.50;99.90
29453;DHT22;16424;50.956;5.320;2022-07-29T05:36:52;18.70;99.90
29453;DHT22;16424;50.956;5.320;2022-07-29T05:39:18;18.90;99.90
29453;DHT22;16424;50.956;5.320;2022-07-29T05:41:44;19.10;99.90
29453;DHT22;16424;50.956;5.320;2022-07-29T05:44:09;19.50;99.90
29453;DHT22;16424;50.956;5.320;2022-07-29T05:46:35;20.20;99.90
29453;DHT22;16424;50.956;5.320;2022-07-29T05:49:00;20.80;99.90
29453;DHT22;16424;50.956;5.320;2022-07-29T05:51:28;21.30;99.90
29453;DHT22;16424;50.956;5.320;2022-07-29T05:53:53;21.70;99.90
29453;DHT22;16424;50.956;5.320;2022-07-29T05:56:19;22.00;99.90
29453;DHT22;16424;50.956;5.320;2022-07-29T05:58:45;22.10;99.90
29453;DHT22;16424;50.956;5.320;2022-07-29T06:01:11;22.10;99.90
29453;DHT22;16424;50.956;5.320;2022-07-29T06:03:37;22.50;99.90
29453;DHT22;16424;50.956;5.320;2022-07-29T06:06:03;22.90;99.90
29453;DHT22;16424;50.956;5.320;2022-07-29T06:08:31;23.30;99.90
29453;DHT22;16424;50.956;5.320;2022-07-29T06:10:59;23.60;99.90
29453;DHT22;16424;50.956;5.320;2022-07-29T06:13:25;24.10;99.90
29453;DHT22;16424;50.956;5.320;2022-07-29T06:15:50;24.30;99.90
29453;DHT22;16424;50.956;5.320;2022-07-29T06:18:16;24.60;99.90
29453;DHT22;16424;50.956;5.320;2022-07-29T06:20:42;24.20;99.90
29453;DHT22;16424;50.956;5.320;2022-07-29T06:23:08;23.80;99.90
29453;DHT22;16424;50.956;5.320;2022-07-29T06:25:35;23.20;99.90
29453;DHT22;16424;50.956;5.320;2022-07-29T06:28:02;22.60;99.90
29453;DHT22;16424;50.956;5.320;2022-07-29T06:30:28;22.20;99.90
29453;DHT22;16424;50.956;5.320;2022-07-29T06:32:56;21.70;99.90
29453;DHT22;16424;50.956;5.320;2022-07-29T06:35:22;21.50;99.90
29453;DHT22;16424;50.956;5.320;2022-07-29T06:37:47;21.30;99.90
29453;DHT22;16424;50.956;5.320;2022-07-29T06:40:13;21.40;99.90
29453;DHT22;16424;50.956;5.320;2022-07-29T06:42:57;21.50;99.90
29453;DHT22;16424;50.956;5.320;2022-07-29T06:45:23;22.20;99.90
29453;DHT22;16424;50.956;5.320;2022-07-29T06:47:49;23.20;99.90
29453;DHT22;16424;50.956;5.320;2022-07-29T06:50:15;24.30;99.90
29453;DHT22;16424;50.956;5.320;2022-07-29T06:52:41;25.20;99.90
29453;DHT22;16424;50.956;5.320;2022-07-29T06:55:07;25.70;99.90
29453;DHT22;16424;50.956;5.320;2022-07-29T06:57:33;25.70;99.90
29453;DHT22;16424;50.956;5.320;2022-07-29T06:59:59;25.60;99.90
29453;DHT22;16424;50.956;5.320;2022-07-29T07:02:25;25.70;99.90
29453;DHT22;16424;50.956;5.320;2022-07-29T07:04:51;25.60;99.90
29453;DHT22;16424;50.956;5.320;2022-07-29T07:07:17;26.10;99.90
29453;DHT22;16424;50.956;5.320;2022-07-29T07:09:43;26.60;99.90
29453;DHT22;16424;50.956;5.320;2022-07-29T07:12:09;27.20;99.90
29453;DHT22;16424;50.956;5.320;2022-07-29T07:14:34;27.40;99.90
29453;DHT22;16424;50.956;5.320;2022-07-29T07:17:00;27.40;99.90
29453;DHT22;16424;50.956;5.320;2022-07-29T07:19:26;26.90;99.90
29453;DHT22;16424;50.956;5.320;2022-07-29T07:21:52;26.90;99.90
29453;DHT22;16424;50.956;5.320;2022-07-29T07:24:18;27.10;99.90
29453;DHT22;16424;50.956;5.320;2022-07-29T07:26:44;27.30;99.90
29453;DHT22;16424;50.956;5.320;2022-07-29T07:29:10;27.50;99.90
29453;DHT22;16424;50.956;5.320;2022-07-29T07:31:37;27.90;99.90
29453;DHT22;16424;50.956;5.320;2022-07-29T07:34:03;28.50;99.90
29453;DHT22;16424;50.956;5.320;2022-07-29T07:36:29;28.80;99.90
29453;DHT22;16424;50.956;5.320;2022-07-29T07:38:54;29.20;99.80
29453;DHT22;16424;50.956;5.320;2022-07-29T07:41:20;29.60;99.80
29453;DHT22;16424;50.956;5.320;2022-07-29T07:43:46;29.60;98.80
29453;DHT22;16424;50.956;5.320;2022-07-29T07:46:12;29.00;99.50
29453;DHT22;16424;50.956;5.320;2022-07-29T07:48:37;29.60;99.10
29453;DHT22;16424;50.956;5.320;2022-07-29T07:51:03;30.30;97.80
29453;DHT22;16424;50.956;5.320;2022-07-29T07:53:29;30.80;96.70
29453;DHT22;16424;50.956;5.320;2022-07-29T07:55:55;31.00;96.30
29453;DHT22;16424;50.956;5.320;2022-07-29T07:58:21;31.40;95.70
29453;DHT22;16424;50.956;5.320;2022-07-29T08:00:46;31.50;95.00
29453;DHT22;16424;50.956;5.320;2022-07-29T08:03:12;31.70;94.90
29453;DHT22;16424;50.956;5.320;2022-07-29T08:05:39;31.60;94.10
29453;DHT22;16424;50.956;5.320;2022-07-29T08:08:05;31.60;93.70
29453;DHT22;16424;50.956;5.320;2022-07-29T08:10:31;31.80;94.70
29453;DHT22;16424;50.956;5.320;2022-07-29T08:13:15;32.20;94.10
29453;DHT22;16424;50.956;5.320;2022-07-29T08:15:41;32.20;93.10
29453;DHT22;16424;50.956;5.320;2022-07-29T08:18:08;32.20;93.80
29453;DHT22;16424;50.956;5.320;2022-07-29T08:20:35;32.50;93.30
29453;DHT22;16424;50.956;5.320;2022-07-29T08:23:02;33.00;92.40
29453;DHT22;16424;50.956;5.320;2022-07-29T08:25:28;32.70;91.30
29453;DHT22;16424;50.956;5.320;2022-07-29T08:27:54;32.10;91.80
29453;DHT22;16424;50.956;5.320;2022-07-29T08:30:19;31.50;92.00
29453;DHT22;16424;50.956;5.320;2022-07-29T08:32:45;31.20;93.00
29453;DHT22;16424;50.956;5.320;2022-07-29T08:35:12;31.40;92.40
29453;DHT22;16424;50.956;5.320;2022-07-29T08:37:38;31.90;92.30
29453;DHT22;16424;50.956;5.320;2022-07-29T08:40:04;32.10;91.90
29453;DHT22;16424;50.956;5.320;2022-07-29T08:42:31;32.30;92.50
29453;DHT22;16424;50.956;5.320;2022-07-29T08:44:57;32.70;91.20
29453;DHT22;16424;50.956;5.320;2022-07-29T08:47:24;33.10;91.50
29453;DHT22;16424;50.956;5.320;2022-07-29T08:49:51;33.00;90.60
29453;DHT22;16424;50.956;5.320;2022-07-29T08:52:18;32.30;91.40
29453;DHT22;16424;50.956;5.320;2022-07-29T08:54:44;32.20;92.10
29453;DHT22;16424;50.956;5.320;2022-07-29T08:57:13;31.90;92.90
29453;DHT22;16424;50.956;5.320;2022-07-29T08:59:40;31.40;92.40
29453;DHT22;16424;50.956;5.320;2022-07-29T09:02:16;31.70;92.80
29453;DHT22;16424;50.956;5.320;2022-07-29T09:04:44;31.90;91.90
29453;DHT22;16424;50.956;5.320;2022-07-29T09:07:15;31.90;91.40
29453;DHT22;16424;50.956;5.320;2022-07-29T09:09:41;31.40;92.50
29453;DHT22;16424;50.956;5.320;2022-07-29T09:12:08;31.50;92.70
29453;DHT22;16424;50.956;5.320;2022-07-29T09:14:34;31.70;92.70
29453;DHT22;16424;50.956;5.320;2022-07-29T09:17:00;31.40;92.50
29453;DHT22;16424;50.956;5.320;2022-07-29T09:19:36;31.30;92.90
29453;DHT22;16424;50.956;5.320;2022-07-29T09:22:04;31.20;92.70
29453;DHT22;16424;50.956;5.320;2022-07-29T09:24:40;31.10;93.00
29453;DHT22;16424;50.956;5.320;2022-07-29T09:29:42;31.30;92.40
29453;DHT22;16424;50.956;5.320;2022-07-29T09:32:09;30.20;93.00
29453;DHT22;16424;50.956;5.320;2022-07-29T09:34:36;30.00;93.70
29453;DHT22;16424;50.956;5.320;2022-07-29T09:37:02;29.90;93.80
29453;DHT22;16424;50.956;5.320;2022-07-29T09:39:34;29.60;93.90
29453;DHT22;16424;50.956;5.320;2022-07-29T09:42:02;29.10;93.90
29453;DHT22;16424;50.956;5.320;2022-07-29T09:44:47;29.00;94.90
29453;DHT22;16424;50.956;5.320;2022-07-29T09:47:15;28.60;94.70
29453;DHT22;16424;50.956;5.320;2022-07-29T09:49:56;28.30;96.20
29453;DHT22;16424;50.956;5.320;2022-07-29T09:52:24;28.30;96.60
29453;DHT22;16424;50.956;5.320;2022-07-29T09:54:49;27.90;95.70
29453;DHT22;16424;50.956;5.320;2022-07-29T09:57:28;27.40;96.00
29453;DHT22;16424;50.956;5.320;2022-07-29T10:02:34;27.60;96.60
29453;DHT22;16424;50.956;5.320;2022-07-29T10:05:02;27.60;95.80
29453;DHT22;16424;50.956;5.320;2022-07-29T10:07:48;27.50;95.90
29453;DHT22;16424;50.956;5.320;2022-07-29T10:10:31;27.10;95.90
29453;DHT22;16424;50.956;5.320;2022-07-29T10:13:04;26.60;96.80
29453;DHT22;16424;50.956;5.320;2022-07-29T10:15:32;26.60;97.40
29453;DHT22;16424;50.956;5.320;2022-07-29T10:17:59;26.20;98.00
29453;DHT22;16424;50.956;5.320;2022-07-29T10:20:26;26.40;97.70
29453;DHT22;16424;50.956;5.320;2022-07-29T10:22:53;26.50;98.70
29453;DHT22;16424;50.956;5.320;2022-07-29T10:25:19;26.70;98.00
29453;DHT22;16424;50.956;5.320;2022-07-29T10:27:46;26.40;98.00
29453;DHT22;16424;50.956;5.320;2022-07-29T10:30:14;26.30;97.10
29453;DHT22;16424;50.956;5.320;2022-07-29T10:38:29;26.40;97.20
29453;DHT22;16424;50.956;5.320;2022-07-29T10:41:10;26.40;97.20
29453;DHT22;16424;50.956;5.320;2022-07-29T10:46:20;26.20;97.30
29453;DHT22;16424;50.956;5.320;2022-07-29T10:49:17;26.20;96.30
29453;DHT22;16424;50.956;5.320;2022-07-29T10:51:51;26.30;97.60
29453;DHT22;16424;50.956;5.320;2022-07-29T10:54:18;26.50;97.10
29453;DHT22;16424;50.956;5.320;2022-07-29T10:56:44;26.70;96.60
29453;DHT22;16424;50.956;5.320;2022-07-29T11:01:49;26.80;96.50
29453;DHT22;16424;50.956;5.320;2022-07-29T11:04:15;26.90;96.00
29453;DHT22;16424;50.956;5.320;2022-07-29T11:07:10;26.90;95.70
29453;DHT22;16424;50.956;5.320;2022-07-29T11:09:37;26.80;95.90
29453;DHT22;16424;50.956;5.320;2022-07-29T11:12:15;26.80;96.40
29453;DHT22;16424;50.956;5.320;2022-07-29T11:14:56;26.90;96.20
29453;DHT22;16424;50.956;5.320;2022-07-29T11:17:23;26.40;96.00
29453;DHT22;16424;50.956;5.320;2022-07-29T11:19:48;25.90;96.90
29453;DHT22;16424;50.956;5.320;2022-07-29T11:22:33;26.00;97.30
29453;DHT22;16424;50.956;5.320;2022-07-29T11:25:18;26.60;97.00
29453;DHT22;16424;50.956;5.320;2022-07-29T11:27:44;26.80;97.10
29453;DHT22;16424;50.956;5.320;2022-07-29T11:30:11;27.10;96.90
29453;DHT22;16424;50.956;5.320;2022-07-29T11:32:42;27.20;96.60
29453;DHT22;16424;50.956;5.320;2022-07-29T11:37:40;27.40;96.10
29453;DHT22;16424;50.956;5.320;2022-07-29T11:45:13;28.50;95.10
29453;DHT22;16424;50.956;5.320;2022-07-29T11:47:41;28.70;95.00
29453;DHT22;16424;50.956;5.320;2022-07-29T11:50:10;28.50;95.80
29453;DHT22;16424;50.956;5.320;2022-07-29T11:52:41;28.30;96.00
29453;DHT22;16424;50.956;5.320;2022-07-29T11:55:19;28.00;96.40
29453;DHT22;16424;50.956;5.320;2022-07-29T11:57:52;27.50;96.40
29453;DHT22;16424;50.956;5.320;2022-07-29T12:00:25;27.10;96.80
29453;DHT22;16424;50.956;5.320;2022-07-29T12:02:51;27.00;97.50
29453;DHT22;16424;50.956;5.320;2022-07-29T12:05:17;27.10;97.20
29453;DHT22;16424;50.956;5.320;2022-07-29T12:07:43;27.20;94.90
29453;DHT22;16424;50.956;5.320;2022-07-29T12:10:09;27.50;95.50
29453;DHT22;16424;50.956;5.320;2022-07-29T12:12:35;27.30;94.20
29453;DHT22;16424;50.956;5.320;2022-07-29T12:15:18;26.90;94.40
29453;DHT22;16424;50.956;5.320;2022-07-29T12:17:46;27.40;94.60
29453;DHT22;16424;50.956;5.320;2022-07-29T12:20:12;27.30;94.50
29453;DHT22;16424;50.956;5.320;2022-07-29T12:22:41;27.30;94.70
29453;DHT22;16424;50.956;5.320;2022-07-29T12:25:13;27.70;95.00
29453;DHT22;16424;50.956;5.320;2022-07-29T12:27:41;28.00;94.60
29453;DHT22;16424;50.956;5.320;2022-07-29T12:30:11;27.80;94.50
29453;DHT22;16424;50.956;5.320;2022-07-29T12:32:40;27.60;94.40
29453;DHT22;16424;50.956;5.320;2022-07-29T12:37:41;27.20;94.80
29453;DHT22;16424;50.956;5.320;2022-07-29T12:40:09;27.20;94.10
29453;DHT22;16424;50.956;5.320;2022-07-29T12:42:35;27.40;94.10
29453;DHT22;16424;50.956;5.320;2022-07-29T12:45:01;27.90;93.20
29453;DHT22;16424;50.956;5.320;2022-07-29T12:47:27;28.20;93.00
29453;DHT22;16424;50.956;5.320;2022-07-29T12:50:11;28.60;92.90
29453;DHT22;16424;50.956;5.320;2022-07-29T12:52:39;28.90;92.00
29453;DHT22;16424;50.956;5.320;2022-07-29T12:55:05;29.20;91.80
29453;DHT22;16424;50.956;5.320;2022-07-29T12:57:31;29.20;91.30
29453;DHT22;16424;50.956;5.320;2022-07-29T13:00:10;29.30;91.80
29453;DHT22;16424;50.956;5.320;2022-07-29T13:02:37;29.10;91.60
29453;DHT22;16424;50.956;5.320;2022-07-29T13:05:05;28.80;92.70
29453;DHT22;16424;50.956;5.320;2022-07-29T13:07:32;28.70;92.70
29453;DHT22;16424;50.956;5.320;2022-07-29T13:10:20;28.60;92.30
29453;DHT22;16424;50.956;5.320;2022-07-29T13:13:05;28.50;92.30
29453;DHT22;16424;50.956;5.320;2022-07-29T13:15:32;28.10;92.60
29453;DHT22;16424;50.956;5.320;2022-07-29T13:17:58;28.00;92.90
29453;DHT22;16424;50.956;5.320;2022-07-29T13:20:25;28.00;93.30
29453;DHT22;16424;50.956;5.320;2022-07-29T13:22:52;28.30;92.60
29453;DHT22;16424;50.956;5.320;2022-07-29T13:25:31;28.50;91.90
29453;DHT22;16424;50.956;5.320;2022-07-29T13:27:58;28.50;91.30
29453;DHT22;16424;50.956;5.320;2022-07-29T13:30:25;28.20;91.40
29453;DHT22;16424;50.956;5.320;2022-07-29T13:32:52;28.00;91.60
29453;DHT22;16424;50.956;5.320;2022-07-29T13:35:18;28.20;91.20
29453;DHT22;16424;50.956;5.320;2022-07-29T13:37:44;28.40;90.80
29453;DHT22;16424;50.956;5.320;2022-07-29T13:40:11;28.80;90.30
29453;DHT22;16424;50.956;5.320;2022-07-29T13:42:37;28.80;89.70
29453;DHT22;16424;50.956;5.320;2022-07-29T13:45:04;28.60;88.60
29453;DHT22;16424;50.956;5.320;2022-07-29T13:47:30;28.30;89.50
29453;DHT22;16424;50.956;5.320;2022-07-29T13:49:56;28.20;90.10
29453;DHT22;16424;50.956;5.320;2022-07-29T13:52:22;28.40;89.80
29453;DHT22;16424;50.956;5.320;2022-07-29T13:54:48;28.40;89.40
29453;DHT22;16424;50.956;5.320;2022-07-29T13:57:14;28.40;89.50
29453;DHT22;16424;50.956;5.320;2022-07-29T13:59:41;28.70;90.40
29453;DHT22;16424;50.956;5.320;2022-07-29T14:02:10;28.90;90.50
29453;DHT22;16424;50.956;5.320;2022-07-29T14:04:37;29.20;86.60
29453;DHT22;16424;50.956;5.320;2022-07-29T14:07:03;29.40;87.30
29453;DHT22;16424;50.956;5.320;2022-07-29T14:09:30;29.40;88.20
29453;DHT22;16424;50.956;5.320;2022-07-29T14:11:56;29.40;86.50
29453;DHT22;16424;50.956;5.320;2022-07-29T14:14:25;29.50;88.00
29453;DHT22;16424;50.956;5.320;2022-07-29T14:16:50;29.30;86.90
29453;DHT22;16424;50.956;5.320;2022-07-29T14:19:16;29.40;88.30
29453;DHT22;16424;50.956;5.320;2022-07-29T14:21:42;29.30;88.60
29453;DHT22;16424;50.956;5.320;2022-07-29T14:24:09;29.30;88.00
29453;DHT22;16424;50.956;5.320;2022-07-29T14:26:35;29.00;86.80
29453;DHT22;16424;50.956;5.320;2022-07-29T14:29:00;28.90;87.60
29453;DHT22;16424;50.956;5.320;2022-07-29T14:31:26;28.70;87.60
29453;DHT22;16424;50.956;5.320;2022-07-29T14:33:52;28.90;88.60
29453;DHT22;16424;50.956;5.320;2022-07-29T14:36:18;28.90;87.90
29453;DHT22;16424;50.956;5.320;2022-07-29T14:38:44;28.70;87.70
29453;DHT22;16424;50.956;5.320;2022-07-29T14:41:10;28.50;88.70
29453;DHT22;16424;50.956;5.320;2022-07-29T14:43:35;28.40;87.50
29453;DHT22;16424;50.956;5.320;2022-07-29T14:46:01;28.30;88.80
29453;DHT22;16424;50.956;5.320;2022-07-29T14:48:27;28.30;89.40
29453;DHT22;16424;50.956;5.320;2022-07-29T14:50:54;28.30;89.60
29453;DHT22;16424;50.956;5.320;2022-07-29T14:53:22;28.40;87.30
29453;DHT22;16424;50.956;5.320;2022-07-29T14:55:47;28.50;86.30
29453;DHT22;16424;50.956;5.320;2022-07-29T14:58:14;28.40;86.50
29453;DHT22;16424;50.956;5.320;2022-07-29T15:00:40;28.40;86.10
29453;DHT22;16424;50.956;5.320;2022-07-29T15:03:06;28.60;86.00
29453;DHT22;16424;50.956;5.320;2022-07-29T15:05:34;28.70;85.40
29453;DHT22;16424;50.956;5.320;2022-07-29T15:08:03;28.60;84.60
29453;DHT22;16424;50.956;5.320;2022-07-29T15:10:29;28.70;85.40
29453;DHT22;16424;50.956;5.320;2022-07-29T15:12:56;28.90;85.50
29453;DHT22;16424;50.956;5.320;2022-07-29T15:15:22;29.20;86.10
29453;DHT22;16424;50.956;5.320;2022-07-29T15:17:50;29.50;85.70
29453;DHT22;16424;50.956;5.320;2022-07-29T15:20:16;29.80;84.50
29453;DHT22;16424;50.956;5.320;2022-07-29T15:22:42;29.90;82.60
29453;DHT22;16424;50.956;5.320;2022-07-29T15:25:08;30.20;81.40
29453;DHT22;16424;50.956;5.320;2022-07-29T15:27:34;30.20;81.80
29453;DHT22;16424;50.956;5.320;2022-07-29T15:30:00;29.60;81.30
29453;DHT22;16424;50.956;5.320;2022-07-29T15:32:26;29.40;83.00
29453;DHT22;16424;50.956;5.320;2022-07-29T15:34:51;29.10;81.70
29453;DHT22;16424;50.956;5.320;2022-07-29T15:37:17;28.90;83.40
29453;DHT22;16424;50.956;5.320;2022-07-29T15:39:43;28.80;82.40
29453;DHT22;16424;50.956;5.320;2022-07-29T15:42:08;28.90;83.50
29453;DHT22;16424;50.956;5.320;2022-07-29T15:44:34;29.00;83.10
29453;DHT22;16424;50.956;5.320;2022-07-29T15:47:00;28.80;82.80
29453;DHT22;16424;50.956;5.320;2022-07-29T15:49:36;28.90;82.10
29453;DHT22;16424;50.956;5.320;2022-07-29T15:52:04;29.00;81.60
29453;DHT22;16424;50.956;5.320;2022-07-29T15:54:32;28.70;82.10
29453;DHT22;16424;50.956;5.320;2022-07-29T15:56:58;28.50;83.80
29453;DHT22;16424;50.956;5.320;2022-07-29T15:59:25;28.40;83.00
29453;DHT22;16424;50.956;5.320;2022-07-29T16:01:51;28.30;83.60
29453;DHT22;16424;50.956;5.320;2022-07-29T16:04:16;28.20;83.60
29453;DHT22;16424;50.956;5.320;2022-07-29T16:06:43;28.10;85.50
29453;DHT22;16424;50.956;5.320;2022-07-29T16:09:08;28.20;84.20
29453;DHT22;16424;50.956;5.320;2022-07-29T16:11:34;28.20;84.80
29453;DHT22;16424;50.956;5.320;2022-07-29T16:14:00;28.30;84.20
29453;DHT22;16424;50.956;5.320;2022-07-29T16:16:26;28.20;83.50